Time;durP1;ratioP1;P1;durP2;ratioP2;P2;SDS_P1;SDS_P2;PMS_P1;PMS_P2;Temp;Humidity;BMP_temperature;BMP_pressure;BME280_temperature;BME280_humidity;BME280_pressure;Samples;Min_cycle;Max_cycle;Signal;HPM_P1;HPM_P2
2023/02/28 00:00:22;;;;;;;15.38;14.27;;;;;;;-2.73;74.68;99236.13;5059141;28;20039;-74
2023/02/28 00:02:48;;;;;;;15.35;14.05;;;;;;;-2.80;75.08;99230.56;5076020;28;20483;-74
2023/02/28 00:05:16;;;;;;;14.10;12.70;;;;;;;-2.80;74.53;99241.09;5045759;28;20016;-74
2023/02/28 00:07:42;;;;;;;14.30;13.27;;;;;;;-2.83;75.16;99238.75;5044360;28;20135;-74
2023/02/28 00:10:09;;;;;;;12.10;11.00;;;;;;;-2.82;74.82;99237.78;5047691;28;20108;-74
2023/02/28 00:12:35;;;;;;;12.52;11.32;;;;;;;-2.88;74.97;99233.06;5050862;28;20027;-74
2023/02/28 00:15:01;;;;;;;13.05;11.80;;;;;;;-2.84;74.78;99223.06;5067675;28;20048;-75
2023/02/28 00:17:27;;;;;;;13.00;12.10;;;;;;;-2.78;75.01;99232.25;5042450;28;20081;-76
2023/02/28 00:19:52;;;;;;;12.50;11.50;;;;;;;-2.71;74.42;99233.38;5061132;28;20020;-76
2023/02/28 00:22:19;;;;;;;11.93;10.90;;;;;;;-2.91;74.80;99232.47;5074869;28;20039;-76
2023/02/28 00:24:44;;;;;;;13.43;12.43;;;;;;;-2.81;74.61;99228.06;5044888;28;20028;-76
2023/02/28 00:27:10;;;;;;;13.35;12.40;;;;;;;-2.78;74.70;99226.97;5060793;28;20028;-76
2023/02/28 00:29:36;;;;;;;11.85;10.75;;;;;;;-2.75;73.54;99231.97;5064679;28;20469;-76
2023/02/28 00:32:03;;;;;;;10.68;9.45;;;;;;;-2.74;74.16;99228.34;5055392;28;20028;-76
2023/02/28 00:34:29;;;;;;;11.13;10.13;;;;;;;-2.88;74.59;99222.50;5073939;28;20028;-76
2023/02/28 00:36:55;;;;;;;12.60;11.60;;;;;;;-2.82;74.15;99214.06;5064344;28;20506;-77
2023/02/28 00:39:21;;;;;;;11.60;10.55;;;;;;;-2.84;74.35;99223.91;5060854;28;20398;-77
2023/02/28 00:41:47;;;;;;;11.52;10.63;;;;;;;-2.83;73.98;99215.03;5060664;28;20116;-76
2023/02/28 00:44:13;;;;;;;11.85;10.98;;;;;;;-2.81;74.62;99223.63;5081301;28;20059;-76
2023/02/28 00:46:38;;;;;;;10.82;9.80;;;;;;;-2.90;74.47;99223.63;5063808;28;20062;-76
2023/02/28 00:49:03;;;;;;;10.55;9.60;;;;;;;-2.75;74.27;99226.72;5060692;28;20111;-77
2023/02/28 00:51:29;;;;;;;12.40;11.40;;;;;;;-2.76;74.17;99231.13;5057267;28;20043;-77
2023/02/28 00:53:56;;;;;;;10.50;9.60;;;;;;;-2.84;73.96;99233.59;5060537;28;20027;-77
2023/02/28 00:56:23;;;;;;;13.15;12.15;;;;;;;-2.98;74.74;99224.28;5060263;28;20033;-77
2023/02/28 00:58:48;;;;;;;12.68;11.57;;;;;;;-2.91;75.00;99232.47;5068492;28;20122;-74
2023/02/28 01:01:13;;;;;;;11.75;10.85;;;;;;;-2.88;74.56;99219.88;5059130;28;20035;-75
2023/02/28 01:03:42;;;;;;;11.82;10.85;;;;;;;-2.75;73.91;99231.97;5074799;28;20046;-76
2023/02/28 01:06:29;;;;;;;11.82;10.93;;;;;;;-2.98;74.29;99195.28;5078467;28;20062;-76
2023/02/28 01:08:55;;;;;;;11.70;10.80;;;;;;;-2.91;74.40;99235.94;5034417;28;20056;-75
2023/02/28 01:11:23;;;;;;;11.68;9.65;;;;;;;-3.05;75.05;99215.25;5034940;28;20029;-77
2023/02/28 01:13:49;;;;;;;13.13;12.13;;;;;;;-2.98;74.76;99216.38;5064254;28;20044;-78
2023/02/28 01:16:15;;;;;;;13.95;12.95;;;;;;;-2.99;74.96;99214.69;5040621;28;20075;-77
2023/02/28 01:18:40;;;;;;;14.07;13.10;;;;;;;-2.96;75.29;99214.44;5080001;28;20449;-77
2023/02/28 01:21:09;;;;;;;12.25;11.35;;;;;;;-2.92;74.93;99205.28;5090041;28;20028;-77
2023/02/28 01:23:34;;;;;;;12.77;11.45;;;;;;;-3.04;75.93;99221.34;5060650;28;20032;-76
2023/02/28 01:26:18;;;;;;;13.95;12.95;;;;;;;-2.93;75.37;99219.44;5059787;28;20012;-76
2023/02/28 01:28:44;;;;;;;11.07;10.27;;;;;;;-2.90;74.90;99218.34;5044361;28;20029;-77
2023/02/28 01:31:10;;;;;;;13.65;12.45;;;;;;;-2.94;75.29;99201.94;5067151;28;20039;-78
2023/02/28 01:33:37;;;;;;;13.25;12.25;;;;;;;-2.89;74.66;99206.81;5050638;28;20061;-77
2023/02/28 01:36:22;;;;;;;13.25;12.15;;;;;;;-2.95;75.59;99216.13;5080638;28;20036;-77
2023/02/28 01:38:48;;;;;;;13.60;12.30;;;;;;;-3.06;75.42;99207.47;5083227;28;20395;-77
2023/02/28 01:41:20;;;;;;;15.57;14.55;;;;;;;-3.02;76.16;99203.59;5060176;28;20020;-77
2023/02/28 01:43:45;;;;;;;13.65;12.55;;;;;;;-2.92;75.69;99210.56;5077251;28;20434;-77
2023/02/28 01:46:11;;;;;;;14.00;13.07;;;;;;;-2.92;75.26;99205.28;5089893;28;20024;-77
2023/02/28 01:48:42;;;;;;;15.30;14.00;;;;;;;-2.93;75.20;99205.44;5057138;28;20480;-76
2023/02/28 01:51:24;;;;;;;12.98;11.95;;;;;;;-2.91;75.55;99201.69;5046536;28;20033;-76
2023/02/28 01:53:53;;;;;;;14.40;13.30;;;;;;;-2.83;75.26;99198.38;5066607;28;20526;-76
2023/02/28 01:56:24;;;;;;;13.07;11.98;;;;;;;-2.88;75.01;99201.44;5045888;28;20395;-76
2023/02/28 01:58:51;;;;;;;14.20;12.98;;;;;;;-2.87;75.44;99203.06;5042448;28;20078;-76
2023/02/28 02:01:21;;;;;;;14.88;13.77;;;;;;;-2.91;74.81;99196.41;5058264;28;20020;-76
2023/02/28 02:03:55;;;;;;;13.48;12.38;;;;;;;-2.78;74.54;99195.34;5058068;28;20491;-77
2023/02/28 02:06:23;;;;;;;12.30;11.20;;;;;;;-2.84;74.90;99192.28;5058820;28;20056;-76
2023/02/28 02:08:48;;;;;;;13.63;12.40;;;;;;;-2.84;74.65;99196.72;5061513;28;20032;-76
2023/02/28 02:11:17;;;;;;;14.10;13.00;;;;;;;-2.86;74.77;99181.03;5056762;28;20040;-76
2023/02/28 02:13:52;;;;;;;13.73;12.45;;;;;;;-2.89;75.49;99189.22;5089796;28;20036;-77
2023/02/28 02:16:39;;;;;;;15.27;14.05;;;;;;;-2.87;75.49;99182.00;5092955;28;20399;-76
2023/02/28 02:19:11;;;;;;;15.15;13.98;;;;;;;-2.85;75.57;99177.41;5084298;28;20063;-76
2023/02/28 02:21:51;;;;;;;14.45;13.27;;;;;;;-2.83;74.96;99172.88;5086869;28;20438;-76
2023/02/28 02:24:40;;;;;;;13.48;12.27;;;;;;;-2.83;75.33;99180.78;5080635;28;20024;-76
2023/02/28 02:27:25;;;;;;;14.25;13.05;;;;;;;-2.83;75.15;99167.59;5063297;28;20033;-76
2023/02/28 02:30:05;;;;;;;14.35;13.30;;;;;;;-2.78;74.77;99163.72;5086409;28;20083;-76
2023/02/28 02:32:52;;;;;;;15.88;14.65;;;;;;;-2.85;75.65;99174.78;5088040;28;20035;-75
2023/02/28 02:35:30;;;;;;;12.52;11.63;;;;;;;-2.80;75.27;99172.59;5085813;28;20094;-76
2023/02/28 02:38:07;;;;;;;15.77;14.57;;;;;;;-2.75;75.65;99168.72;5063509;28;20107;-76
2023/02/28 02:40:37;;;;;;;13.53;12.27;;;;;;;-2.83;74.87;99167.59;5080066;28;20024;-75
2023/02/28 02:43:10;;;;;;;13.90;12.68;;;;;;;-2.88;76.11;99164.53;5065158;28;20291;-76
2023/02/28 02:45:55;;;;;;;16.42;15.10;;;;;;;-2.88;75.78;99158.44;5069752;28;20035;-75
2023/02/28 02:48:25;;;;;;;14.73;13.43;;;;;;;-2.75;75.10;99166.09;5067724;28;20518;-77
2023/02/28 02:50:57;;;;;;;15.02;13.60;;;;;;;-2.81;74.96;99168.28;5079458;28;20550;-77
2023/02/28 02:53:29;;;;;;;14.60;13.60;;;;;;;-2.75;75.23;99168.72;5060287;28;20492;-77
2023/02/28 02:55:56;;;;;;;20.17;18.17;;;;;;;-2.81;75.45;99165.66;5032967;28;20063;-77
2023/02/28 02:58:27;;;;;;;22.15;17.63;;;;;;;-2.90;75.39;99171.75;5059501;28;20016;-76
2023/02/28 03:00:56;;;;;;;15.95;14.82;;;;;;;-2.83;74.93;99161.50;5059203;28;20039;-75
2023/02/28 03:03:28;;;;;;;17.63;16.33;;;;;;;-2.87;75.49;99178.56;5074843;28;20020;-75
2023/02/28 03:05:55;;;;;;;15.18;13.70;;;;;;;-2.92;75.72;99168.38;5048586;28;20032;-75
2023/02/28 03:08:21;;;;;;;15.82;14.50;;;;;;;-2.90;75.42;99160.38;5060896;28;20024;-78
2023/02/28 03:10:51;;;;;;;17.17;15.77;;;;;;;-2.92;75.77;99160.47;5083893;28;20037;-76
2023/02/28 03:13:35;;;;;;;15.75;14.32;;;;;;;-2.84;75.10;99171.19;5071754;28;20039;-76
2023/02/28 03:16:15;;;;;;;17.30;15.70;;;;;;;-2.91;75.81;99170.06;5044544;28;20041;-76
2023/02/28 03:19:00;;;;;;;16.30;15.10;;;;;;;-2.90;74.92;99174.38;5068762;28;20028;-76
2023/02/28 03:21:32;;;;;;;17.23;15.68;;;;;;;-2.98;75.68;99174.22;5079151;28;20028;-76
2023/02/28 03:24:19;;;;;;;15.85;14.52;;;;;;;-2.88;76.08;99180.34;5081761;28;20036;-77
2023/02/28 03:26:52;;;;;;;17.70;16.23;;;;;;;-2.91;76.18;99175.34;5048294;28;20035;-76
2023/02/28 03:29:26;;;;;;;17.13;15.88;;;;;;;-2.96;75.95;99167.00;5079032;28;20042;-77
2023/02/28 03:31:57;;;;;;;15.15;13.60;;;;;;;-2.92;75.16;99170.22;5084835;28;20050;-76
2023/02/28 03:34:27;;;;;;;14.57;13.38;;;;;;;-2.87;75.67;99175.91;5052017;28;20062;-77
2023/02/28 03:37:02;;;;;;;15.40;14.00;;;;;;;-2.96;75.20;99176.72;5064906;28;20031;-76
2023/02/28 03:39:34;;;;;;;16.05;14.75;;;;;;;-2.91;75.76;99170.06;5068769;28;20032;-78
2023/02/28 03:42:04;;;;;;;16.95;15.45;;;;;;;-2.91;75.57;99174.50;5060398;28;20097;-78
2023/02/28 03:44:34;;;;;;;16.90;15.60;;;;;;;-2.97;75.37;99173.25;5063455;28;20040;-77
2023/02/28 03:47:03;;;;;;;16.75;15.55;;;;;;;-2.98;75.47;99184.75;5079756;28;20066;-75
2023/02/28 03:49:33;;;;;;;16.80;15.30;;;;;;;-3.10;76.31;99185.81;5050307;28;20027;-78
2023/02/28 03:52:02;;;;;;;17.13;15.80;;;;;;;-3.12;76.15;99187.75;5075317;28;20439;-76
2023/02/28 03:54:40;;;;;;;19.25;17.80;;;;;;;-3.02;75.63;99188.63;5075642;28;20016;-77
2023/02/28 03:57:36;;;;;;;20.55;19.05;;;;;;;-3.10;75.65;99174.44;5063349;28;20047;-78
2023/02/28 04:00:05;;;;;;;;;;;;;;;-3.10;75.54;99196.38;5074786;28;20067;-77
2023/02/28 04:02:39;;;;;;;19.95;18.10;;;;;;;-3.10;76.11;99193.72;5083208;28;20315;-76
2023/02/28 04:05:05;;;;;;;18.08;16.77;;;;;;;-3.02;75.16;99199.16;5067920;28;20036;-76
2023/02/28 04:07:30;;;;;;;17.40;15.68;;;;;;;-3.15;76.03;99198.56;5063322;28;20024;-77
2023/02/28 04:09:56;;;;;;;17.27;15.63;;;;;;;-3.08;75.97;99194.44;5077745;28;20039;-77
2023/02/28 04:12:22;;;;;;;16.95;15.38;;;;;;;-3.17;75.95;99195.22;5092912;28;20028;-77
2023/02/28 04:14:49;;;;;;;18.77;17.00;;;;;;;-3.07;75.26;99204.00;5045191;28;20102;-77
2023/02/28 04:17:15;;;;;;;17.67;16.02;;;;;;;-3.20;76.19;99195.53;5060335;28;20020;-77
2023/02/28 04:19:42;;;;;;;16.88;15.38;;;;;;;-3.13;75.92;99204.56;5061804;28;20054;-77
2023/02/28 04:22:08;;;;;;;18.58;17.15;;;;;;;-3.10;75.05;99185.81;5049614;28;20066;-78
2023/02/28 04:24:50;;;;;;;16.23;14.77;;;;;;;-3.15;75.61;99203.03;5042995;28;21651;-77
2023/02/28 04:27:17;;;;;;;16.33;14.68;;;;;;;-2.99;74.97;99206.78;5086411;28;20495;-77
2023/02/28 04:29:44;;;;;;;16.67;15.27;;;;;;;-3.24;76.19;99194.09;5046650;28;20405;-76
2023/02/28 04:32:10;;;;;;;19.60;18.00;;;;;;;-3.17;75.68;99203.13;5079317;28;20040;-77
2023/02/28 04:34:35;;;;;;;19.83;18.33;;;;;;;-3.20;76.22;99200.78;5064221;28;20108;-76
2023/02/28 04:37:01;;;;;;;18.52;17.13;;;;;;;-3.26;75.85;99195.19;5056418;28;20162;-76
2023/02/28 04:39:26;;;;;;;18.40;16.80;;;;;;;-3.25;76.08;99208.25;5060458;28;20049;-76
2023/02/28 04:41:52;;;;;;;16.70;15.07;;;;;;;-3.21;75.78;99204.38;5079689;28;20039;-76
2023/02/28 04:44:17;;;;;;;19.92;18.40;;;;;;;-3.33;76.74;99205.44;5047174;28;20499;-77
2023/02/28 04:46:43;;;;;;;17.58;16.27;;;;;;;-3.31;75.83;99198.22;5072169;28;20142;-78
2023/02/28 04:49:10;;;;;;;16.27;14.88;;;;;;;-3.23;76.11;99206.31;5086627;28;20028;-76
2023/02/28 04:51:36;;;;;;;17.40;15.68;;;;;;;-3.22;75.72;99197.44;5064932;28;20445;-76
2023/02/28 04:54:01;;;;;;;16.98;15.40;;;;;;;-3.24;75.79;99202.00;5090427;28;20028;-76
2023/02/28 04:56:27;;;;;;;16.67;15.27;;;;;;;-3.26;75.82;99193.41;5090613;28;20127;-75
2023/02/28 04:58:52;;;;;;;16.23;14.73;;;;;;;-3.22;75.71;99197.44;5043563;28;20391;-76
2023/02/28 05:01:27;;;;;;;18.92;17.42;;;;;;;-3.18;75.56;99198.84;5080081;28;20065;-76
2023/02/28 05:03:54;;;;;;;17.90;16.50;;;;;;;-3.25;76.13;99192.44;5063742;28;20044;-76
2023/02/28 05:06:20;;;;;;;15.60;14.20;;;;;;;-3.21;75.33;99203.53;5065185;28;20589;-75
2023/02/28 05:08:46;;;;;;;18.60;17.08;;;;;;;-3.26;75.66;99196.03;5085204;28;20037;-76
2023/02/28 05:11:34;;;;;;;16.65;15.15;;;;;;;-3.26;76.32;99200.47;5065091;28;20020;-76
2023/02/28 05:14:12;;;;;;;16.77;15.13;;;;;;;-3.27;76.12;99204.91;5082689;28;20050;-75
2023/02/28 05:16:38;;;;;;;19.70;18.23;;;;;;;-3.20;75.51;99198.16;5083833;28;20114;-75
2023/02/28 05:19:03;;;;;;;17.73;16.02;;;;;;;-3.13;75.32;99207.19;5080131;28;20628;-76
2023/02/28 05:21:34;;;;;;;30.60;20.05;;;;;;;-3.18;75.85;99203.28;5056234;28;20039;-75
2023/02/28 05:24:02;;;;;;;45.67;26.65;;;;;;;-3.20;76.17;99203.41;5064237;28;20569;-75
2023/02/28 05:26:28;;;;;;;21.60;19.30;;;;;;;-3.11;75.22;99207.88;5065599;28;20080;-75
2023/02/28 05:28:53;;;;;;;22.08;20.08;;;;;;;-3.07;75.24;99214.53;5055989;28;20067;-75
2023/02/28 05:31:18;;;;;;;17.13;15.48;;;;;;;-3.14;75.26;99205.50;5076557;28;20020;-75
2023/02/28 05:33:44;;;;;;;18.52;17.02;;;;;;;-3.05;74.71;99217.03;5059027;28;20119;-74
2023/02/28 05:36:09;;;;;;;18.15;16.25;;;;;;;-3.09;75.26;99213.84;5054786;28;20055;-75
2023/02/28 05:38:35;;;;;;;18.58;16.98;;;;;;;-2.96;74.57;99224.13;5057497;28;20028;-76
2023/02/28 05:41:05;;;;;;;15.65;13.25;;;;;;;-2.99;74.81;99225.22;5049630;28;20384;-76
2023/02/28 05:43:30;;;;;;;16.30;14.70;;;;;;;-3.06;74.31;99213.59;5065439;28;20031;-75
2023/02/28 05:45:55;;;;;;;18.33;16.75;;;;;;;-3.02;75.00;99227.31;5060285;28;20026;-75
2023/02/28 05:48:21;;;;;;;16.25;14.55;;;;;;;-3.13;75.16;99225.63;5078216;28;20041;-77
2023/02/28 05:50:46;;;;;;;20.75;19.05;;;;;;;-3.09;75.20;99224.38;5064848;28;20021;-76
2023/02/28 05:53:12;;;;;;;18.42;16.63;;;;;;;-3.10;75.21;99235.03;5077126;28;20115;-77
2023/02/28 05:55:37;;;;;;;20.38;18.67;;;;;;;-3.03;75.36;99237.00;5063576;28;20016;-77
2023/02/28 05:58:03;;;;;;;21.75;19.90;;;;;;;-3.06;75.58;99242.56;5048975;28;20040;-78
2023/02/28 06:00:28;;;;;;;21.17;19.52;;;;;;;-3.03;74.93;99223.84;5067285;28;20025;-76
2023/02/28 06:02:57;;;;;;;20.13;18.52;;;;;;;-3.02;74.62;99230.78;5076052;28;20487;-76
2023/02/28 06:05:23;;;;;;;17.90;15.93;;;;;;;-3.09;74.63;99221.75;5091411;28;20017;-78
2023/02/28 06:07:48;;;;;;;19.48;17.77;;;;;;;-2.88;74.52;99243.59;5073164;28;20028;-78
2023/02/28 06:10:14;;;;;;;17.95;15.63;;;;;;;-2.90;74.40;99244.69;5097810;28;20028;-78
2023/02/28 06:12:41;;;;;;;18.88;15.77;;;;;;;-2.88;73.71;99240.13;5069953;28;20111;-77
2023/02/28 06:15:07;;;;;;;18.38;16.85;;;;;;;-2.82;74.25;99250.94;5065698;28;20028;-78
2023/02/28 06:17:32;;;;;;;19.40;17.42;;;;;;;-2.82;73.90;99243.03;5097983;28;20042;-77
2023/02/28 06:19:58;;;;;;;18.52;16.10;;;;;;;-2.95;74.09;99225.81;5057969;28;20028;-78
2023/02/28 06:22:23;;;;;;;19.65;17.90;;;;;;;-2.77;73.58;99240.00;5063346;28;20036;-77
2023/02/28 06:24:49;;;;;;;18.33;16.70;;;;;;;-2.73;73.65;99256.41;5083604;28;20051;-78
2023/02/28 06:27:14;;;;;;;18.75;16.90;;;;;;;-2.78;73.77;99245.41;5081042;28;20108;-78
2023/02/28 06:29:39;;;;;;;19.13;14.10;;;;;;;-2.70;73.64;99250.81;5067109;28;20031;-78
2023/02/28 06:32:05;;;;;;;18.35;16.75;;;;;;;-2.63;72.99;99254.59;5098434;28;20072;-77
2023/02/28 06:34:31;;;;;;;17.13;15.45;;;;;;;-2.57;73.22;99251.44;5050403;28;20024;-78
2023/02/28 06:36:56;;;;;;;17.13;15.43;;;;;;;-2.58;73.62;99255.03;5066224;28;20036;-77
2023/02/28 06:39:22;;;;;;;18.38;16.67;;;;;;;-2.54;73.49;99256.41;5061510;28;20044;-77
2023/02/28 06:41:47;;;;;;;19.00;17.27;;;;;;;-2.41;72.97;99262.28;5097540;28;20043;-78
2023/02/28 06:44:17;;;;;;;16.52;14.43;;;;;;;-2.40;72.97;99263.94;5107822;28;20032;-77
2023/02/28 06:46:44;;;;;;;19.67;17.75;;;;;;;-2.38;73.00;99269.94;5071754;28;20063;-77
2023/02/28 06:49:10;;;;;;;18.77;17.13;;;;;;;-2.35;72.80;99273.13;5066374;28;20025;-77
2023/02/28 06:51:37;;;;;;;18.35;16.75;;;;;;;-2.31;73.16;99273.69;5080180;28;20050;-77
2023/02/28 06:54:03;;;;;;;17.27;15.65;;;;;;;-2.23;72.21;99271.19;5089398;28;20473;-77
2023/02/28 06:56:28;;;;;;;18.48;15.52;;;;;;;-2.31;72.60;99273.69;5068110;28;20036;-76
2023/02/28 06:58:54;;;;;;;18.52;16.90;;;;;;;-2.28;72.53;99278.66;5093066;28;20437;-76
2023/02/28 07:01:20;;;;;;;17.58;16.05;;;;;;;-2.17;71.18;99281.19;5060565;28;20040;-77
2023/02/28 07:03:45;;;;;;;16.60;13.70;;;;;;;-2.21;71.49;99285.06;5046943;28;20028;-77
2023/02/28 07:06:11;;;;;;;17.35;15.75;;;;;;;-2.14;71.36;99275.63;5067404;28;20483;-77
2023/02/28 07:08:37;;;;;;;16.35;14.85;;;;;;;-2.04;71.37;99284.41;5088725;28;20032;-77
2023/02/28 07:11:03;;;;;;;17.20;15.55;;;;;;;-2.07;71.41;99282.03;5067830;28;20376;-77
2023/02/28 07:13:28;;;;;;;15.50;13.88;;;;;;;-2.05;71.26;99274.78;5062641;28;20028;-76
2023/02/28 07:15:59;;;;;;;17.38;15.77;;;;;;;-1.99;71.20;99278.69;5061604;28;20040;-77
2023/02/28 07:18:25;;;;;;;17.95;16.25;;;;;;;-1.89;70.82;99269.78;5064063;28;20037;-75
2023/02/28 07:20:50;;;;;;;19.95;14.60;;;;;;;-1.99;71.42;99268.97;5035848;28;20048;-78
2023/02/28 07:23:16;;;;;;;16.60;14.02;;;;;;;-1.81;70.99;99285.78;5084803;28;20068;-77
2023/02/28 07:25:42;;;;;;;18.17;14.35;;;;;;;-1.76;70.74;99280.06;5062527;28;20021;-77
2023/02/28 07:28:07;;;;;;;17.02;15.43;;;;;;;-1.64;70.48;99284.25;5077609;28;20043;-77
2023/02/28 07:30:32;;;;;;;17.90;15.77;;;;;;;-1.64;70.52;99271.03;5080613;28;20112;-77
2023/02/28 07:32:58;;;;;;;16.85;15.13;;;;;;;-1.55;69.32;99273.66;5065640;28;20033;-77
2023/02/28 07:35:23;;;;;;;17.40;15.68;;;;;;;-1.40;70.51;99266.94;5043964;28;20059;-77
2023/02/28 07:37:49;;;;;;;17.20;15.40;;;;;;;-1.35;70.11;99279.72;5050350;28;20033;-77
2023/02/28 07:40:15;;;;;;;16.08;14.55;;;;;;;-1.35;70.28;99277.09;5067287;28;20024;-77
2023/02/28 07:42:41;;;;;;;15.55;14.00;;;;;;;-1.38;69.06;99274.75;5062023;28;20493;-78
2023/02/28 07:45:11;;;;;;;16.17;14.57;;;;;;;-1.31;69.59;99280.28;5076323;28;20023;-78
2023/02/28 07:47:39;;;;;;;15.57;13.98;;;;;;;-1.25;69.37;99279.69;5092666;28;20035;-77
2023/02/28 07:50:06;;;;;;;13.88;12.55;;;;;;;-1.17;68.92;99275.38;5059468;28;20029;-77
2023/02/28 07:52:32;;;;;;;14.10;12.70;;;;;;;-1.09;68.41;99274.66;5065106;28;20117;-77
2023/02/28 07:54:57;;;;;;;16.05;14.20;;;;;;;-1.07;68.61;99272.69;5068015;28;20454;-77
2023/02/28 07:57:23;;;;;;;15.73;13.93;;;;;;;-1.03;69.07;99280.22;5092085;28;20036;-77
2023/02/28 07:59:49;;;;;;;16.50;14.80;;;;;;;-1.04;68.93;99275.06;5079043;28;20496;-77
2023/02/28 08:02:16;;;;;;;14.60;13.20;;;;;;;-1.02;68.85;99270.44;5065330;28;20033;-77
2023/02/28 08:04:41;;;;;;;15.25;13.05;;;;;;;-0.93;67.74;99274.84;5077455;28;20019;-77
2023/02/28 08:07:06;;;;;;;14.55;13.02;;;;;;;-0.81;67.66;99268.41;5061587;28;20032;-77
2023/02/28 08:09:32;;;;;;;15.18;13.63;;;;;;;-0.71;67.73;99275.34;5045623;28;20055;-77
2023/02/28 08:11:57;;;;;;;13.93;12.40;;;;;;;-0.94;67.44;99265.28;5051497;28;20071;-77
2023/02/28 08:14:23;;;;;;;15.15;13.27;;;;;;;-0.70;67.91;99273.50;5059515;28;20495;-77
2023/02/28 08:16:48;;;;;;;14.80;13.23;;;;;;;-0.73;67.39;99279.09;5077821;28;20525;-77
2023/02/28 08:19:14;;;;;;;15.02;13.52;;;;;;;-0.60;67.43;99271.66;5080084;28;20500;-77
2023/02/28 08:21:39;;;;;;;14.43;12.73;;;;;;;-0.58;67.05;99284.75;5091085;28;20471;-77
2023/02/28 08:24:05;;;;;;;14.75;13.15;;;;;;;-0.54;66.89;99272.88;5092477;28;20173;-77
2023/02/28 08:26:31;;;;;;;15.60;13.77;;;;;;;-0.41;66.15;99282.13;5077467;28;20036;-77
2023/02/28 08:28:56;;;;;;;13.90;12.52;;;;;;;-0.49;66.22;99278.56;5081187;28;20020;-77
2023/02/28 08:31:22;;;;;;;13.90;12.60;;;;;;;-0.32;66.51;99275.94;5064510;28;20033;-77
2023/02/28 08:33:50;;;;;;;16.23;13.15;;;;;;;-0.01;65.35;99274.63;5073777;28;20024;-77
2023/02/28 08:36:16;;;;;;;14.82;13.27;;;;;;;0.14;65.50;99276.72;5061438;28;20032;-77
2023/02/28 08:38:42;;;;;;;14.73;13.20;;;;;;;-0.02;65.69;99270.28;5081289;28;20047;-77
2023/02/28 08:41:11;;;;;;;14.63;13.00;;;;;;;-0.02;65.70;99267.63;5084833;28;20108;-77
2023/02/28 08:43:36;;;;;;;14.85;13.32;;;;;;;-0.09;64.98;99274.53;5066763;28;20069;-78
2023/02/28 08:46:03;;;;;;;13.23;11.93;;;;;;;-0.05;64.28;99270.56;5079567;28;20032;-78
2023/02/28 08:48:30;;;;;;;14.27;12.68;;;;;;;0.08;64.58;99267.56;5059242;28;20024;-75
2023/02/28 08:51:02;;;;;;;15.63;11.82;;;;;;;0.05;63.06;99272.34;5062583;28;20374;-75
2023/02/28 08:53:28;;;;;;;14.35;12.88;;;;;;;0.40;64.46;99267.00;5060178;28;20054;-75
2023/02/28 08:56:10;;;;;;;14.77;13.38;;;;;;;0.16;63.43;99270.28;5076954;28;20109;-76
2023/02/28 08:58:36;;;;;;;17.83;12.35;;;;;;;0.22;63.25;99274.13;5061774;28;20040;-77
2023/02/28 09:01:08;;;;;;;19.20;12.82;;;;;;;0.39;63.53;99270.66;5082960;28;20071;-77
2023/02/28 09:03:33;;;;;;;13.52;12.10;;;;;;;0.05;62.34;99264.41;5050622;28;20135;-77
2023/02/28 09:06:00;;;;;;;13.93;12.63;;;;;;;0.27;63.65;99272.69;5046752;28;20099;-76
2023/02/28 09:08:28;;;;;;;16.55;12.88;;;;;;;0.64;62.74;99275.13;5059985;28;20028;-76
2023/02/28 09:10:56;;;;;;;13.82;12.45;;;;;;;0.69;63.05;99283.44;5060542;28;20032;-76
2023/02/28 09:13:21;;;;;;;13.20;11.80;;;;;;;0.71;60.63;99265.56;5063897;28;20037;-76
2023/02/28 09:15:47;;;;;;;14.80;12.63;;;;;;;0.65;62.36;99271.50;5070711;28;20032;-76
2023/02/28 09:18:12;;;;;;;13.00;11.50;;;;;;;0.57;60.95;99264.31;5059586;28;20043;-76
2023/02/28 09:20:39;;;;;;;14.35;12.82;;;;;;;0.81;61.14;99276.91;5080148;28;20051;-76
2023/02/28 09:23:05;;;;;;;13.02;11.73;;;;;;;0.89;61.10;99269.00;5070410;28;20035;-76
2023/02/28 09:25:31;;;;;;;13.27;11.20;;;;;;;0.76;59.57;99268.59;5059206;28;20115;-76
2023/02/28 09:27:56;;;;;;;13.20;11.63;;;;;;;0.69;60.29;99267.56;5080535;28;20107;-75
2023/02/28 09:30:22;;;;;;;12.73;11.43;;;;;;;0.80;60.02;99269.94;5080084;28;20031;-76
2023/02/28 09:32:51;;;;;;;12.23;11.02;;;;;;;0.94;59.62;99272.00;5059738;28;20438;-76
2023/02/28 09:35:18;;;;;;;15.00;11.15;;;;;;;0.76;59.34;99273.91;5073943;28;20442;-76
2023/02/28 09:37:45;;;;;;;13.02;11.65;;;;;;;0.93;60.24;99270.38;5073293;28;20519;-76
2023/02/28 09:40:11;;;;;;;11.73;10.55;;;;;;;0.81;59.56;99271.63;5079380;28;20025;-76
2023/02/28 09:42:37;;;;;;;13.65;11.27;;;;;;;0.94;59.31;99282.63;5088063;28;20035;-76
2023/02/28 09:45:08;;;;;;;14.55;10.80;;;;;;;0.99;59.08;99275.03;5090031;28;20026;-76
2023/02/28 09:47:40;;;;;;;13.23;11.18;;;;;;;0.90;58.14;99286.56;5059671;28;20093;-76
2023/02/28 09:50:26;;;;;;;13.85;11.10;;;;;;;1.09;58.58;99280.22;5073147;28;20032;-76
2023/02/28 09:52:53;;;;;;;17.42;11.75;;;;;;;1.02;59.41;99290.63;5067007;28;20126;-76
2023/02/28 09:55:35;;;;;;;12.55;11.18;;;;;;;0.90;58.59;99283.09;5056195;28;20028;-76
2023/02/28 09:58:01;;;;;;;14.27;12.00;;;;;;;1.02;58.70;99274.72;5072850;28;20707;-77
2023/02/28 10:00:32;;;;;;;14.05;11.68;;;;;;;1.17;56.96;99286.38;5065661;28;20017;-76
2023/02/28 10:03:26;;;;;;;12.95;11.65;;;;;;;0.92;57.90;99263.38;5056127;28;20039;-76
2023/02/28 10:06:19;;;;;;;13.05;11.75;;;;;;;1.17;58.44;99289.03;5067106;28;20042;-76
2023/02/28 10:08:57;;;;;;;12.50;11.20;;;;;;;1.29;57.69;99282.47;5065449;28;20052;-76
2023/02/28 10:11:23;;;;;;;12.50;11.30;;;;;;;1.32;58.40;99287.47;5076004;28;20506;-76
2023/02/28 10:14:02;;;;;;;13.63;12.23;;;;;;;1.14;58.37;99291.19;5061842;28;20078;-76
2023/02/28 10:16:47;;;;;;;14.57;11.50;;;;;;;1.48;58.09;99277.91;5062627;28;20503;-77
2023/02/28 10:19:24;;;;;;;15.15;12.35;;;;;;;1.55;56.99;99286.88;5048659;28;20035;-77
2023/02/28 10:22:10;;;;;;;12.68;11.48;;;;;;;1.44;56.22;99284.53;5076227;28;20093;-76
2023/02/28 10:24:41;;;;;;;16.50;12.38;;;;;;;1.58;57.82;99281.25;5058686;28;20415;-76
2023/02/28 10:27:21;;;;;;;12.93;11.63;;;;;;;1.48;58.29;99286.69;5059106;28;20071;-77
2023/02/28 10:29:49;;;;;;;14.23;11.13;;;;;;;1.71;57.92;99289.59;5083028;28;20466;-77
2023/02/28 10:32:20;;;;;;;14.05;11.85;;;;;;;1.60;56.93;99277.44;5065350;28;20028;-76
2023/02/28 10:35:08;;;;;;;13.65;11.48;;;;;;;1.78;56.14;99287.94;5062227;28;20475;-77
2023/02/28 10:37:38;;;;;;;14.18;11.75;;;;;;;1.88;56.55;99286.00;5082424;28;20415;-77
2023/02/28 10:40:05;;;;;;;15.38;12.05;;;;;;;2.06;56.81;99284.03;5083678;28;20032;-77
2023/02/28 10:42:32;;;;;;;12.50;10.52;;;;;;;1.80;55.82;99302.72;5046345;28;20427;-77
2023/02/28 10:45:11;;;;;;;10.82;9.65;;;;;;;1.78;55.07;99282.63;5045803;28;20037;-77
2023/02/28 10:48:02;;;;;;;14.18;10.77;;;;;;;1.66;53.64;99278.63;5085302;28;20051;-77
2023/02/28 10:50:27;;;;;;;15.63;9.13;;;;;;;2.28;54.21;99278.09;5055854;28;20043;-77
2023/02/28 10:52:53;;;;;;;11.55;9.55;;;;;;;2.70;52.52;99260.13;5081322;28;20396;-77
2023/02/28 10:55:24;;;;;;;10.75;9.55;;;;;;;3.21;52.32;99265.97;5061005;28;20044;-76
2023/02/28 10:57:51;;;;;;;11.45;9.65;;;;;;;3.27;52.39;99268.78;5076100;28;20135;-77
2023/02/28 11:00:19;;;;;;;11.70;10.48;;;;;;;2.77;52.33;99261.13;5057842;28;20115;-77
2023/02/28 11:02:46;;;;;;;10.93;9.93;;;;;;;2.72;51.13;99267.94;5083043;28;20047;-76
2023/02/28 11:05:27;;;;;;;10.45;9.38;;;;;;;2.21;53.05;99262.97;5072241;28;20547;-76
2023/02/28 11:07:54;;;;;;;10.57;9.52;;;;;;;2.10;52.44;99261.47;5075899;28;20111;-77
2023/02/28 11:10:21;;;;;;;11.23;10.13;;;;;;;2.46;51.82;99262.81;5086735;28;20055;-76
2023/02/28 11:12:47;;;;;;;14.52;10.18;;;;;;;2.48;52.10;99252.81;5085290;28;20028;-76
2023/02/28 11:15:25;;;;;;;13.07;10.20;;;;;;;2.67;51.25;99265.78;5058877;28;20020;-77
2023/02/28 11:17:56;;;;;;;11.85;9.80;;;;;;;2.60;51.40;99248.84;5079259;28;20144;-77
2023/02/28 11:20:23;;;;;;;11.32;9.75;;;;;;;2.33;52.49;99254.50;5063730;28;20028;-76
2023/02/28 11:22:50;;;;;;;10.95;9.95;;;;;;;2.54;50.97;99257.50;5057601;28;20020;-77
2023/02/28 11:25:21;;;;;;;11.23;10.02;;;;;;;2.28;52.76;99264.81;5065282;28;20040;-76
2023/02/28 11:27:49;;;;;;;14.63;10.30;;;;;;;2.71;51.66;99251.13;5081439;28;20089;-77